Time;durP1;ratioP1;P1;durP2;ratioP2;P2;SDS_P1;SDS_P2;PMS_P1;PMS_P2;Temp;Humidity;BMP_temperature;BMP_pressure;BME280_temperature;BME280_humidity;BME280_pressure;Samples;Min_cycle;Max_cycle;Signal;HPM_P1;HPM_P2
2024/02/23 00:02:08;;;;;;;45.50;42.70;;;9.10;74.50;;;;;;5118226;28;20231;-86
2024/02/23 00:04:34;;;;;;;45.30;42.30;;;9.20;74.20;;;;;;5116364;28;20181;-85
2024/02/23 00:06:59;;;;;;;44.63;41.83;;;9.10;73.90;;;;;;5117490;28;20351;-85
2024/02/23 00:09:25;;;;;;;46.10;42.97;;;9.10;74.00;;;;;;5117742;28;20671;-85
2024/02/23 00:11:50;;;;;;;43.43;40.73;;;9.10;73.70;;;;;;5117753;28;20218;-85
2024/02/23 00:14:18;;;;;;;43.53;40.80;;;9.00;75.40;;;;;;5118068;28;20249;-85
2024/02/23 00:16:44;;;;;;;42.27;39.40;;;9.10;75.40;;;;;;5118031;28;20177;-86
2024/02/23 00:19:10;;;;;;;43.10;40.40;;;9.10;75.30;;;;;;5117751;28;20272;-86
2024/02/23 00:21:37;;;;;;;37.87;35.53;;;9.20;74.70;;;;;;5116326;28;20174;-84
2024/02/23 00:24:02;;;;;;;32.80;30.70;;;8.90;77.90;;;;;;5117809;28;20177;-85
2024/02/23 00:26:29;;;;;;;31.00;29.10;;;8.50;80.80;;;;;;5116514;28;20226;-85
2024/02/23 00:28:55;;;;;;;29.97;27.80;;;8.30;81.90;;;;;;5115989;28;20573;-85
2024/02/23 00:31:20;;;;;;;32.10;30.00;;;8.30;82.30;;;;;;5116486;28;20265;-86
2024/02/23 00:33:46;;;;;;;30.47;28.67;;;8.30;80.60;;;;;;5117595;28;20181;-86
2024/02/23 00:36:12;;;;;;;30.30;28.50;;;8.20;81.10;;;;;;5117870;28;20170;-85
2024/02/23 00:38:37;;;;;;;31.57;29.67;;;8.10;81.20;;;;;;5116245;28;20677;-87
2024/02/23 00:41:03;;;;;;;30.93;29.07;;;8.10;80.80;;;;;;5118110;28;20177;-85
2024/02/23 00:43:31;;;;;;;31.70;29.80;;;8.00;80.40;;;;;;5118054;28;20170;-85
2024/02/23 00:45:57;;;;;;;32.60;30.60;;;8.00;80.90;;;;;;5117739;28;20223;-86
2024/02/23 00:48:22;;;;;;;32.80;30.80;;;8.00;80.50;;;;;;5116257;28;20210;-85
2024/02/23 00:50:48;;;;;;;19.50;17.13;;;8.00;80.70;;;;;;5116369;28;20193;-85
2024/02/23 00:53:13;;;;;;;17.73;16.70;;;8.00;80.90;;;;;;5116859;28;20174;-84
2024/02/23 00:55:39;;;;;;;17.77;16.70;;;7.90;79.90;;;;;;5114430;28;20174;-84
2024/02/23 00:58:04;;;;;;;18.77;17.57;;;7.80;79.70;;;;;;5113729;28;20205;-84
2024/02/23 01:00:30;;;;;;;17.97;16.87;;;7.70;78.80;;;;;;5115308;28;20555;-86
2024/02/23 01:02:55;;;;;;;18.23;16.80;;;7.60;79.40;;;;;;5114045;28;20178;-85
2024/02/23 01:05:21;;;;;;;18.50;17.40;;;7.60;79.10;;;;;;5115092;28;20197;-86
2024/02/23 01:07:46;;;;;;;18.03;16.83;;;7.40;79.60;;;;;;5115076;28;20351;-86
2024/02/23 01:10:12;;;;;;;17.23;16.13;;;7.30;80.50;;;;;;5115111;28;20170;-86
2024/02/23 01:12:37;;;;;;;17.43;16.43;;;7.30;80.40;;;;;;5113820;28;20181;-86
2024/02/23 01:15:03;;;;;;;18.10;17.00;;;7.30;80.20;;;;;;5113654;28;20667;-86
2024/02/23 01:17:29;;;;;;;17.70;16.63;;;7.20;80.20;;;;;;5113501;28;20227;-86
2024/02/23 01:19:54;;;;;;;17.60;16.60;;;7.20;80.00;;;;;;5115104;28;20182;-86
2024/02/23 01:22:20;;;;;;;17.73;16.63;;;7.20;80.30;;;;;;5113583;28;20228;-86
2024/02/23 01:24:45;;;;;;;17.63;16.53;;;7.20;79.50;;;;;;5113474;28;20192;-86
2024/02/23 01:27:11;;;;;;;18.07;16.97;;;7.10;79.60;;;;;;5114941;28;20283;-86
2024/02/23 01:29:36;;;;;;;17.03;16.03;;;7.10;79.80;;;;;;5114423;28;20194;-86
2024/02/23 01:32:02;;;;;;;18.33;17.23;;;7.10;80.70;;;;;;5113287;28;20202;-86
2024/02/23 01:34:28;;;;;;;17.07;15.97;;;7.00;79.80;;;;;;5113393;28;20181;-85
2024/02/23 01:36:53;;;;;;;17.37;16.37;;;7.00;80.60;;;;;;5114522;28;20215;-86
2024/02/23 01:39:19;;;;;;;17.07;16.07;;;7.00;81.20;;;;;;5114380;28;20196;-86
2024/02/23 01:41:46;;;;;;;16.77;15.77;;;6.90;80.40;;;;;;5114513;28;20256;-85
2024/02/23 01:44:11;;;;;;;17.00;16.00;;;6.90;80.70;;;;;;5114407;28;20851;-86
2024/02/23 01:46:37;;;;;;;16.67;15.67;;;6.80;80.70;;;;;;5114881;28;20264;-86
2024/02/23 01:49:03;;;;;;;16.37;15.43;;;6.80;80.60;;;;;;5114498;28;20194;-86
2024/02/23 01:51:29;;;;;;;16.53;15.60;;;6.80;81.70;;;;;;5114324;28;20630;-86
2024/02/23 01:53:55;;;;;;;33.77;31.77;;;6.80;81.30;;;;;;5112889;28;20181;-85
2024/02/23 01:56:20;;;;;;;34.07;32.03;;;6.80;80.90;;;;;;5114417;28;20170;-86
2024/02/23 01:58:46;;;;;;;33.30;31.30;;;6.80;80.70;;;;;;5112771;28;20271;-85
2024/02/23 02:01:12;;;;;;;34.70;32.60;;;6.70;81.10;;;;;;5112773;28;20182;-86
2024/02/23 02:03:38;;;;;;;33.27;31.27;;;6.70;80.00;;;;;;5114085;28;20219;-86
2024/02/23 02:06:08;;;;;;;32.53;30.53;;;6.60;80.90;;;;;;5112587;28;20242;-86
2024/02/23 02:08:37;;;;;;;31.90;30.00;;;6.60;81.70;;;;;;5113707;28;20202;-86
2024/02/23 02:11:03;;;;;;;31.53;29.63;;;6.50;81.50;;;;;;5112125;28;20201;-86
2024/02/23 02:13:29;;;;;;;30.70;28.90;;;6.60;81.80;;;;;;5113951;28;20201;-86
2024/02/23 02:15:55;;;;;;;30.63;28.73;;;6.50;81.90;;;;;;5114278;28;20652;-86
2024/02/23 02:18:21;;;;;;;29.40;27.70;;;6.50;82.70;;;;;;5112762;28;20285;-86
2024/02/23 02:20:57;;;;;;;28.97;27.27;;;6.50;83.00;;;;;;5114094;28;20181;-86
2024/02/23 02:23:23;;;;;;;28.40;26.70;;;6.50;83.60;;;;;;5114125;28;20170;-86
2024/02/23 02:25:58;;;;;;;30.67;28.77;;;6.50;83.60;;;;;;5113979;28;20256;-86
2024/02/23 02:28:25;;;;;;;30.97;29.07;;;6.40;82.80;;;;;;5113790;28;20201;-86
2024/02/23 02:30:52;;;;;;;32.17;30.20;;;6.30;82.40;;;;;;5113948;28;20200;-86
2024/02/23 02:33:18;;;;;;;31.10;29.20;;;6.30;82.60;;;;;;5112553;28;20170;-86
2024/02/23 02:35:44;;;;;;;30.40;28.50;;;6.30;83.20;;;;;;5114168;28;20597;-86
2024/02/23 02:38:11;;;;;;;31.63;29.57;;;6.20;83.30;;;;;;5113803;28;20201;-86
2024/02/23 02:40:37;;;;;;;31.10;29.07;;;6.20;83.10;;;;;;5112434;28;20656;-86
2024/02/23 02:43:02;;;;;;;30.07;28.13;;;6.10;83.10;;;;;;5113802;28;20170;-86
2024/02/23 02:45:28;;;;;;;28.57;26.87;;;6.10;83.30;;;;;;5114159;28;20177;-86
2024/02/23 02:47:54;;;;;;;30.77;28.93;;;6.00;83.00;;;;;;5113701;28;20232;-86
2024/02/23 02:50:19;;;;;;;28.73;27.03;;;6.10;83.30;;;;;;5112612;28;20283;-86
2024/02/23 02:52:45;;;;;;;29.67;27.87;;;6.10;83.40;;;;;;5113772;28;20192;-86
2024/02/23 02:55:10;;;;;;;29.97;28.17;;;6.10;83.10;;;;;;5112400;28;20630;-86
2024/02/23 02:57:36;;;;;;;29.80;28.00;;;6.10;82.60;;;;;;5112619;28;20230;-86
2024/02/23 03:00:05;;;;;;;29.17;27.20;;;6.10;83.70;;;;;;5113680;28;20182;-86
2024/02/23 03:02:37;;;;;;;28.93;27.17;;;6.10;83.90;;;;;;5113902;28;20265;-86
2024/02/23 03:05:03;;;;;;;28.37;26.70;;;6.10;84.40;;;;;;5112243;28;20182;-86
2024/02/23 03:07:28;;;;;;;27.83;26.13;;;6.00;84.50;;;;;;5112307;28;20205;-86
2024/02/23 03:09:54;;;;;;;29.20;27.40;;;6.00;84.20;;;;;;5112420;28;20173;-85
2024/02/23 03:12:20;;;;;;;27.17;25.37;;;6.00;84.60;;;;;;5112446;28;20210;-85
2024/02/23 03:14:45;;;;;;;26.37;24.87;;;6.00;85.10;;;;;;5112301;28;20205;-86
2024/02/23 03:17:11;;;;;;;26.73;24.93;;;6.00;85.20;;;;;;5112368;28;20178;-86
2024/02/23 03:19:37;;;;;;;27.37;25.50;;;6.00;85.30;;;;;;5113560;28;20197;-86
2024/02/23 03:22:03;;;;;;;27.47;25.63;;;6.00;84.70;;;;;;5116106;28;20654;-86
2024/02/23 03:24:29;;;;;;;27.33;25.73;;;6.00;84.10;;;;;;5116161;28;20181;-86
2024/02/23 03:26:55;;;;;;;27.63;25.87;;;6.10;84.40;;;;;;5117554;28;20227;-86
2024/02/23 03:29:24;;;;;;;27.50;25.73;;;6.00;84.10;;;;;;5117067;28;20258;-85
2024/02/23 03:31:52;;;;;;;27.53;25.63;;;6.00;84.20;;;;;;5115828;28;20664;-85
2024/02/23 03:34:17;;;;;;;27.63;26.00;;;6.00;84.20;;;;;;5115965;28;20209;-86
2024/02/23 03:36:43;;;;;;;29.03;27.33;;;6.00;83.40;;;;;;5115820;28;20665;-85
2024/02/23 03:39:09;;;;;;;24.57;23.07;;;6.00;83.70;;;;;;5116997;28;20197;-85
2024/02/23 03:41:34;;;;;;;28.43;26.70;;;5.90;83.60;;;;;;5117127;28;20651;-86
2024/02/23 03:44:00;;;;;;;28.40;26.67;;;6.00;83.40;;;;;;5117006;27;20229;-86
2024/02/23 03:46:25;;;;;;;28.60;26.80;;;5.90;82.80;;;;;;5115650;28;20166;-85
2024/02/23 03:48:51;;;;;;;29.90;27.87;;;5.90;83.20;;;;;;5115462;28;20366;-85
2024/02/23 03:51:17;;;;;;;28.33;26.43;;;5.80;83.10;;;;;;5116730;27;20166;-86
2024/02/23 03:53:43;;;;;;;29.70;27.80;;;5.80;83.30;;;;;;5116921;28;20512;-86
2024/02/23 03:56:08;;;;;;;16.20;15.20;;;5.80;83.20;;;;;;5115491;28;20166;-85
2024/02/23 03:58:34;;;;;;;16.67;15.47;;;5.80;83.30;;;;;;5115346;28;20545;-86
2024/02/23 04:00:59;;;;;;;17.40;15.90;;;5.70;83.10;;;;;;5115462;28;20261;-85
2024/02/23 04:03:25;;;;;;;16.70;15.30;;;5.70;83.20;;;;;;5116789;28;20560;-86
2024/02/23 04:05:50;;;;;;;16.90;15.17;;;5.60;83.80;;;;;;5116574;28;20201;-86
2024/02/23 04:08:16;;;;;;;16.17;15.00;;;5.50;83.30;;;;;;5115174;28;20205;-86
2024/02/23 04:10:42;;;;;;;15.90;14.80;;;5.50;83.00;;;;;;5116447;28;20176;-85
2024/02/23 04:13:07;;;;;;;15.93;14.83;;;5.50;83.20;;;;;;5116627;28;20181;-85
2024/02/23 04:15:33;;;;;;;15.63;14.63;;;5.50;83.40;;;;;;5115291;28;20657;-86
2024/02/23 04:17:58;;;;;;;14.90;14.00;;;5.50;84.00;;;;;;5116377;27;20248;-85
2024/02/23 04:20:24;;;;;;;15.37;14.17;;;5.50;83.80;;;;;;5116062;27;20748;-86
2024/02/23 04:22:49;;;;;;;14.50;13.30;;;5.50;84.00;;;;;;5116115;28;20185;-85
2024/02/23 04:25:15;;;;;;;14.77;13.60;;;5.50;84.50;;;;;;5116244;28;20645;-85
2024/02/23 04:27:40;;;;;;;14.23;13.33;;;5.40;85.10;;;;;;5114484;28;20244;-85
2024/02/23 04:30:07;;;;;;;14.27;13.20;;;5.40;85.00;;;;;;5115726;28;20630;-87
2024/02/23 04:32:32;;;;;;;14.30;13.40;;;5.40;85.00;;;;;;5114335;28;20189;-85
2024/02/23 04:34:58;;;;;;;14.90;13.50;;;5.40;85.00;;;;;;5116296;28;20174;-86
2024/02/23 04:37:23;;;;;;;13.97;13.07;;;5.40;85.30;;;;;;5115971;28;20543;-85
2024/02/23 04:39:49;;;;;;;14.27;13.23;;;5.50;85.60;;;;;;5115887;28;20545;-86
2024/02/23 04:42:15;;;;;;;13.67;12.77;;;5.40;85.70;;;;;;5115870;28;20181;-85
2024/02/23 04:44:43;;;;;;;15.50;14.10;;;5.40;85.40;;;;;;5114561;28;20205;-86
2024/02/23 04:47:09;;;;;;;14.70;13.63;;;5.50;85.20;;;;;;5115997;28;20304;-85
2024/02/23 04:49:35;;;;;;;14.67;13.37;;;5.50;85.00;;;;;;5115514;28;20265;-85
2024/02/23 04:52:00;;;;;;;13.80;12.83;;;5.50;85.10;;;;;;5115704;28;20166;-85
2024/02/23 04:54:26;;;;;;;25.60;23.93;;;5.50;85.20;;;;;;5115424;28;20205;-85
2024/02/23 04:56:51;;;;;;;25.63;24.03;;;5.50;85.20;;;;;;5115681;28;20169;-85
2024/02/23 04:59:17;;;;;;;26.07;24.03;;;5.60;84.60;;;;;;5115372;28;20725;-86
2024/02/23 05:01:42;;;;;;;26.57;24.90;;;5.60;84.50;;;;;;5115224;28;20184;-86
2024/02/23 05:04:08;;;;;;;28.23;25.87;;;5.70;84.80;;;;;;5115448;28;20241;-86
2024/02/23 05:06:34;;;;;;;27.97;26.07;;;5.60;84.50;;;;;;5115194;28;20210;-85
2024/02/23 05:08:59;;;;;;;26.90;25.00;;;5.60;85.10;;;;;;5113972;28;20573;-85
2024/02/23 05:11:25;;;;;;;25.37;23.50;;;5.60;85.40;;;;;;5113843;28;20166;-85
2024/02/23 05:13:50;;;;;;;25.53;23.93;;;5.60;85.00;;;;;;5115146;28;20169;-85
2024/02/23 05:16:16;;;;;;;28.33;26.40;;;5.50;85.60;;;;;;5115326;28;20585;-85
2024/02/23 05:18:43;;;;;;;28.00;26.10;;;5.50;84.90;;;;;;5114921;28;20201;-85
2024/02/23 05:21:09;;;;;;;26.30;24.60;;;5.50;85.00;;;;;;5115124;28;20217;-86
2024/02/23 05:23:35;;;;;;;24.67;23.17;;;5.40;85.70;;;;;;5114898;28;20260;-85
2024/02/23 05:26:00;;;;;;;25.27;23.37;;;5.40;85.40;;;;;;5114991;28;20268;-85
2024/02/23 05:28:26;;;;;;;27.17;25.30;;;5.40;84.90;;;;;;5115032;28;20218;-85
2024/02/23 05:30:52;;;;;;;25.87;24.27;;;5.40;85.00;;;;;;5114726;28;20181;-85
2024/02/23 05:33:20;;;;;;;27.53;25.83;;;5.50;85.00;;;;;;5114935;28;20218;-85
2024/02/23 05:35:48;;;;;;;28.37;26.27;;;5.50;84.70;;;;;;5114753;28;20740;-85
2024/02/23 05:38:17;;;;;;;25.93;23.87;;;5.50;84.60;;;;;;5114693;28;20584;-85
2024/02/23 05:40:43;;;;;;;29.07;26.70;;;5.40;85.20;;;;;;5114626;28;20215;-85
2024/02/23 05:43:08;;;;;;;27.97;26.10;;;5.40;84.70;;;;;;5114939;28;20177;-85
2024/02/23 05:45:34;;;;;;;28.17;26.17;;;5.50;84.70;;;;;;5112190;28;20169;-85
2024/02/23 05:48:00;;;;;;;29.07;27.17;;;5.50;84.40;;;;;;5114654;28;20216;-85
2024/02/23 05:50:25;;;;;;;28.87;26.80;;;5.50;84.00;;;;;;5114869;28;20631;-86
2024/02/23 05:52:52;;;;;;;26.97;25.13;;;5.40;83.70;;;;;;5113192;28;20177;-85
2024/02/23 05:55:18;;;;;;;26.43;24.40;;;5.40;84.40;;;;;;5114663;28;20166;-86
2024/02/23 05:57:43;;;;;;;25.17;23.60;;;5.50;83.70;;;;;;5114335;28;20197;-85
2024/02/23 06:00:09;;;;;;;25.47;23.77;;;5.50;83.90;;;;;;5114438;28;20178;-86
2024/02/23 06:02:35;;;;;;;25.77;23.97;;;5.50;84.20;;;;;;5112926;28;20181;-85
2024/02/23 06:05:00;;;;;;;28.20;26.30;;;5.60;83.60;;;;;;5113839;28;20208;-86
2024/02/23 06:07:28;;;;;;;27.57;25.77;;;5.50;84.00;;;;;;5112726;28;20197;-86
2024/02/23 06:09:57;;;;;;;28.80;27.00;;;5.40;84.00;;;;;;5114122;28;20162;-85
2024/02/23 06:12:24;;;;;;;29.63;27.73;;;5.40;83.20;;;;;;5114272;28;20587;-85
2024/02/23 06:14:51;;;;;;;31.57;28.83;;;5.40;83.60;;;;;;5114076;28;20534;-85
2024/02/23 06:17:16;;;;;;;28.53;26.73;;;5.30;84.10;;;;;;5114292;28;20182;-85
2024/02/23 06:19:42;;;;;;;29.10;27.30;;;5.30;84.10;;;;;;5112760;28;20216;-85
2024/02/23 06:22:09;;;;;;;30.00;27.83;;;5.20;83.60;;;;;;5112645;28;20177;-85
2024/02/23 06:24:35;;;;;;;28.33;26.63;;;5.20;83.70;;;;;;5114125;28;20196;-85
2024/02/23 06:27:03;;;;;;;28.03;26.20;;;5.20;84.10;;;;;;5113188;28;20659;-86
2024/02/23 06:29:29;;;;;;;25.90;24.10;;;5.10;84.40;;;;;;5115040;28;20188;-86
2024/02/23 06:31:54;;;;;;;26.53;24.57;;;5.10;84.20;;;;;;5114763;28;20166;-85
2024/02/23 06:34:20;;;;;;;27.40;25.53;;;5.10;84.40;;;;;;5114754;28;20173;-85
2024/02/23 06:36:45;;;;;;;27.87;25.87;;;5.10;84.40;;;;;;5113178;28;20181;-86
2024/02/23 06:39:11;;;;;;;27.33;25.13;;;5.10;84.40;;;;;;5114639;28;20194;-85
2024/02/23 06:41:38;;;;;;;25.07;23.10;;;5.20;83.90;;;;;;5113472;28;20178;-85
2024/02/23 06:44:04;;;;;;;25.83;23.30;;;5.20;84.00;;;;;;5115002;28;20182;-85
2024/02/23 06:46:30;;;;;;;26.00;24.30;;;5.20;84.60;;;;;;5114505;28;20593;-86
2024/02/23 06:48:56;;;;;;;26.70;24.83;;;5.20;84.00;;;;;;5114321;28;20216;-86
2024/02/23 06:51:21;;;;;;;25.43;23.83;;;5.20;84.10;;;;;;5113271;28;20557;-86
2024/02/23 06:53:47;;;;;;;25.73;23.90;;;5.20;84.60;;;;;;5114763;28;20177;-88
2024/02/23 06:56:13;;;;;;;27.70;25.33;;;5.20;84.20;;;;;;5114697;28;20177;-87
2024/02/23 06:58:39;;;;;;;27.43;25.47;;;5.20;84.30;;;;;;5117151;28;20242;-86
2024/02/23 07:01:06;;;;;;;25.63;23.83;;;5.30;84.50;;;;;;5118952;28;20649;-86
2024/02/23 07:03:35;;;;;;;16.60;15.47;;;5.20;84.40;;;;;;5118746;28;20230;-86
2024/02/23 07:06:00;;;;;;;17.07;15.83;;;5.20;84.50;;;;;;5118441;28;20659;-85
2024/02/23 07:08:26;;;;;;;16.93;15.83;;;5.10;85.10;;;;;;5116677;28;20223;-85
2024/02/23 07:10:51;;;;;;;15.53;14.33;;;5.20;84.40;;;;;;5118299;28;20259;-86
2024/02/23 07:13:17;;;;;;;22.17;20.77;;;5.00;85.30;;;;;;5118357;27;20680;-85
2024/02/23 07:15:43;;;;;;;23.30;21.20;;;5.10;85.10;;;;;;5118164;28;20169;-85
2024/02/23 07:18:09;;;;;;;23.80;21.87;;;5.10;85.20;;;;;;5116428;28;20219;-85
2024/02/23 07:20:38;;;;;;;22.60;20.90;;;5.20;85.00;;;;;;5116742;28;20244;-85
2024/02/23 07:23:04;;;;;;;15.40;14.37;;;5.20;84.90;;;;;;5117957;28;20181;-86
2024/02/23 07:25:30;;;;;;;15.07;13.87;;;5.10;84.60;;;;;;5118120;27;20644;-86
2024/02/23 07:27:55;;;;;;;14.97;13.97;;;5.10;84.90;;;;;;5117862;28;20201;-85
2024/02/23 07:30:21;;;;;;;15.97;14.67;;;5.10;84.80;;;;;;5116555;28;20189;-85
2024/02/23 07:32:46;;;;;;;15.40;14.10;;;5.20;85.00;;;;;;5116425;28;20181;-85
2024/02/23 07:35:12;;;;;;;15.60;14.33;;;5.20;85.30;;;;;;5116584;28;20531;-85
2024/02/23 07:37:38;;;;;;;14.33;13.23;;;5.20;84.90;;;;;;5117883;28;20256;-86
2024/02/23 07:40:04;;;;;;;15.90;14.70;;;5.20;84.90;;;;;;5118127;28;20186;-87
2024/02/23 07:42:31;;;;;;;16.23;15.07;;;5.30;85.00;;;;;;5118483;28;20173;-87
2024/02/23 07:44:56;;;;;;;14.93;13.77;;;5.30;84.90;;;;;;5118987;28;20174;-87
2024/02/23 07:47:22;;;;;;;15.10;13.83;;;5.30;84.50;;;;;;5118464;28;20208;-87
2024/02/23 07:49:48;;;;;;;15.57;14.30;;;5.30;85.20;;;;;;5116210;28;20177;-87
2024/02/23 07:52:13;;;;;;;15.20;14.03;;;5.30;84.60;;;;;;5117846;28;20167;-87
2024/02/23 07:54:39;;;;;;;16.03;14.57;;;5.30;84.90;;;;;;5117482;28;20169;-87
2024/02/23 07:57:04;;;;;;;15.83;14.83;;;5.30;84.80;;;;;;5117236;28;20178;-87
2024/02/23 07:59:30;;;;;;;15.83;14.80;;;5.30;84.70;;;;;;5116137;28;20277;-88
2024/02/23 08:01:56;;;;;;;16.10;14.80;;;5.30;85.20;;;;;;5115786;28;20166;-87
2024/02/23 08:04:21;;;;;;;14.60;13.50;;;5.30;85.40;;;;;;5117433;28;20189;-88
2024/02/23 08:06:48;;;;;;;15.57;14.17;;;5.30;85.40;;;;;;5115727;28;20200;-87
2024/02/23 08:09:13;;;;;;;17.67;15.83;;;5.40;85.70;;;;;;5116365;28;20251;-88
2024/02/23 08:11:39;;;;;;;15.80;14.73;;;5.40;85.00;;;;;;5117312;28;20177;-87
2024/02/23 08:14:04;;;;;;;16.93;15.73;;;5.50;85.20;;;;;;5117241;28;20181;-87
2024/02/23 08:16:30;;;;;;;16.67;15.30;;;5.50;84.90;;;;;;5117570;28;20188;-87
2024/02/23 08:18:55;;;;;;;21.90;20.03;;;5.60;85.30;;;;;;5115823;28;20286;-87
2024/02/23 08:21:21;;;;;;;21.43;20.00;;;5.60;85.20;;;;;;5115743;28;20649;-87
2024/02/23 08:23:46;;;;;;;21.63;19.83;;;5.50;85.30;;;;;;5117295;28;20177;-88
2024/02/23 08:26:12;;;;;;;18.97;17.30;;;5.50;84.90;;;;;;5117666;28;20181;-87
2024/02/23 08:28:37;;;;;;;18.50;17.20;;;5.60;84.70;;;;;;5117199;28;20209;-87
2024/02/23 08:31:03;;;;;;;19.27;17.77;;;5.60;84.80;;;;;;5116692;28;20170;-86
2024/02/23 08:33:29;;;;;;;19.03;17.63;;;5.70;84.20;;;;;;5116468;28;20189;-86
2024/02/23 08:35:54;;;;;;;20.13;18.33;;;5.80;83.30;;;;;;5118405;28;20175;-85
2024/02/23 08:38:20;;;;;;;20.33;18.90;;;5.90;83.30;;;;;;5117297;28;20194;-86
2024/02/23 08:40:45;;;;;;;20.97;19.10;;;6.00;83.00;;;;;;5116665;28;20177;-85
2024/02/23 08:43:11;;;;;;;20.63;19.13;;;5.80;82.70;;;;;;5118112;28;20174;-87
2024/02/23 08:45:37;;;;;;;19.43;17.87;;;5.80;82.30;;;;;;5116790;28;20189;-87
2024/02/23 08:48:03;;;;;;;20.23;18.77;;;5.90;82.50;;;;;;5115887;28;20221;-87
2024/02/23 08:50:29;;;;;;;20.70;19.20;;;6.00;82.20;;;;;;5115810;28;20230;-87
2024/02/23 08:52:54;;;;;;;20.70;19.03;;;6.00;82.10;;;;;;5115675;28;20197;-86
2024/02/23 08:55:21;;;;;;;21.90;19.83;;;6.10;82.40;;;;;;5117189;28;20265;-87
2024/02/23 08:57:47;;;;;;;22.30;20.27;;;6.10;82.20;;;;;;5115604;28;20282;-88
2024/02/23 09:00:14;;;;;;;22.67;20.53;;;6.20;81.80;;;;;;5116095;28;20186;-86
2024/02/23 09:02:41;;;;;;;21.20;19.57;;;6.20;81.10;;;;;;5116413;28;20188;-87
2024/02/23 09:05:07;;;;;;;23.27;21.03;;;6.20;81.30;;;;;;5116048;28;20193;-86
2024/02/23 09:07:33;;;;;;;28.30;26.07;;;6.20;81.00;;;;;;5116286;28;20590;-86
2024/02/23 09:09:58;;;;;;;30.40;27.20;;;6.20;80.90;;;;;;5118036;28;20170;-87
2024/02/23 09:12:24;;;;;;;28.73;26.67;;;6.30;81.00;;;;;;5117927;28;20249;-85
2024/02/23 09:14:49;;;;;;;29.20;27.00;;;6.30;81.20;;;;;;5117991;28;20187;-87
2024/02/23 09:17:15;;;;;;;28.50;26.43;;;6.30;80.40;;;;;;5117721;28;20178;-87
2024/02/23 09:19:40;;;;;;;28.83;26.67;;;6.40;80.60;;;;;;5117738;28;20193;-87
2024/02/23 09:22:06;;;;;;;29.10;26.67;;;6.50;81.00;;;;;;5118059;28;20262;-87
2024/02/23 09:24:31;;;;;;;30.07;27.67;;;6.60;80.60;;;;;;5116466;28;20178;-86
2024/02/23 09:26:57;;;;;;;29.00;26.70;;;6.50;79.90;;;;;;5116279;28;20178;-85
2024/02/23 09:29:23;;;;;;;29.27;27.37;;;6.80;80.10;;;;;;5115860;28;20286;-87
2024/02/23 09:31:48;;;;;;;30.23;27.80;;;6.80;79.40;;;;;;5115831;28;20257;-87
2024/02/23 09:34:14;;;;;;;29.93;27.60;;;6.90;79.50;;;;;;5116418;28;20170;-87
2024/02/23 09:36:40;;;;;;;30.67;28.50;;;6.80;79.80;;;;;;5117797;28;20599;-85
2024/02/23 09:39:05;;;;;;;31.03;28.73;;;6.80;79.80;;;;;;5116273;28;20190;-86
2024/02/23 09:41:31;;;;;;;30.10;27.77;;;6.80;79.30;;;;;;5115774;28;20181;-86
2024/02/23 09:43:59;;;;;;;30.27;27.90;;;6.80;79.40;;;;;;5116437;28;20574;-87
2024/02/23 09:46:25;;;;;;;29.33;27.10;;;6.80;78.90;;;;;;5115894;28;20182;-85
2024/02/23 09:48:52;;;;;;;26.47;24.57;;;6.80;79.80;;;;;;5115988;28;20588;-85
2024/02/23 09:51:18;;;;;;;27.10;24.83;;;6.90;79.60;;;;;;5116933;28;20170;-87
2024/02/23 09:53:44;;;;;;;27.60;25.30;;;6.90;79.30;;;;;;5117555;28;20261;-87
2024/02/23 09:56:10;;;;;;;27.20;25.40;;;7.10;78.90;;;;;;5118170;28;20618;-85
2024/02/23 09:58:37;;;;;;;29.37;27.27;;;7.00;77.70;;;;;;5116055;28;20197;-85
2024/02/23 10:01:03;;;;;;;28.13;25.77;;;7.10;77.60;;;;;;5118103;28;20201;-85
2024/02/23 10:03:33;;;;;;;27.87;25.63;;;7.10;78.10;;;;;;5116045;28;20611;-87
2024/02/23 10:06:01;;;;;;;27.67;25.23;;;7.20;78.20;;;;;;5117720;28;20239;-87
2024/02/23 10:08:29;;;;;;;28.30;25.40;;;7.10;78.10;;;;;;5114842;28;20643;-86
2024/02/23 10:10:56;;;;;;;28.13;25.83;;;7.10;78.70;;;;;;5115533;28;20174;-86
2024/02/23 10:13:26;;;;;;;26.57;24.77;;;7.10;78.50;;;;;;5115083;28;20200;-85
2024/02/23 10:15:52;;;;;;;28.20;25.60;;;7.10;78.60;;;;;;5116078;28;20505;-86
2024/02/23 10:18:18;;;;;;;27.97;25.73;;;7.10;77.70;;;;;;5116620;28;20204;-86
2024/02/23 10:20:44;;;;;;;28.37;26.33;;;7.10;78.80;;;;;;5116706;28;20174;-87
2024/02/23 10:23:09;;;;;;;27.67;25.37;;;7.10;77.90;;;;;;5116249;28;20251;-86
2024/02/23 10:25:35;;;;;;;28.33;26.07;;;7.10;77.90;;;;;;5116062;28;20545;-86
2024/02/23 10:28:02;;;;;;;28.00;25.63;;;7.10;78.00;;;;;;5115972;28;20206;-84
2024/02/23 10:30:27;;;;;;;28.20;25.93;;;7.20;77.70;;;;;;5114423;28;20184;-87
2024/02/23 10:32:56;;;;;;;28.10;26.30;;;7.20;77.30;;;;;;5116380;28;20170;-86
2024/02/23 10:35:22;;;;;;;29.63;27.47;;;7.20;76.90;;;;;;5116312;28;20546;-86
2024/02/23 10:37:53;;;;;;;28.57;26.60;;;7.30;77.00;;;;;;5114465;28;20201;-87
2024/02/23 10:40:19;;;;;;;30.73;28.30;;;7.60;75.30;;;;;;5114804;28;20629;-86
2024/02/23 10:42:48;;;;;;;30.30;28.10;;;7.60;74.20;;;;;;5116461;28;20195;-87
2024/02/23 10:45:18;;;;;;;30.53;28.13;;;7.50;75.40;;;;;;5115485;28;20633;-86
2024/02/23 10:47:43;;;;;;;29.80;27.60;;;7.50;75.10;;;;;;5112871;28;20689;-86
2024/02/23 10:50:11;;;;;;;30.83;28.27;;;7.60;76.20;;;;;;5115916;28;20180;-87
2024/02/23 10:52:37;;;;;;;29.73;27.63;;;7.60;75.40;;;;;;5115770;28;20528;-87
2024/02/23 10:55:06;;;;;;;30.27;27.97;;;7.60;76.40;;;;;;5114149;28;20170;-86
2024/02/23 10:57:32;;;;;;;29.93;27.83;;;7.60;75.70;;;;;;5114330;28;20178;-86
2024/02/23 10:59:58;;;;;;;31.40;28.90;;;7.50;74.90;;;;;;5115000;28;20553;-87
2024/02/23 11:02:29;;;;;;;24.33;22.67;;;7.50;75.50;;;;;;5115881;28;20257;-86
2024/02/23 11:04:57;;;;;;;25.80;23.73;;;7.40;75.80;;;;;;5115038;28;20244;-85
2024/02/23 11:07:25;;;;;;;24.07;22.13;;;7.40;75.10;;;;;;5116025;28;20664;-88
2024/02/23 11:09:55;;;;;;;24.67;22.83;;;7.40;75.30;;;;;;5116282;28;20170;-87
2024/02/23 11:12:25;;;;;;;24.60;22.73;;;7.30;75.00;;;;;;5115433;28;20260;-87
2024/02/23 11:14:51;;;;;;;24.20;22.50;;;7.30;75.60;;;;;;5115366;28;20276;-87
2024/02/23 11:17:20;;;;;;;23.63;21.67;;;7.40;74.80;;;;;;5116534;28;20684;-86
2024/02/23 11:19:49;;;;;;;23.97;21.80;;;7.40;75.90;;;;;;5116020;28;20170;-87
2024/02/23 11:22:14;;;;;;;23.57;21.50;;;7.50;76.80;;;;;;5115423;28;20199;-87
2024/02/23 11:24:45;;;;;;;24.23;22.63;;;7.90;75.50;;;;;;5114994;28;20196;-86
2024/02/23 11:27:16;;;;;;;23.60;22.00;;;8.10;73.80;;;;;;5115827;28;20653;-86
2024/02/23 11:29:43;;;;;;;24.90;23.00;;;8.10;74.80;;;;;;5112905;28;20248;-88
2024/02/23 11:32:16;;;;;;;24.93;22.93;;;8.00;74.40;;;;;;5115346;28;20535;-86
2024/02/23 11:34:41;;;;;;;20.67;18.73;;;8.00;76.00;;;;;;5115518;28;20201;-87
2024/02/23 11:37:10;;;;;;;21.50;19.63;;;7.80;75.20;;;;;;5113778;28;20178;-86
2024/02/23 11:39:38;;;;;;;21.33;19.33;;;7.80;76.00;;;;;;5113826;28;20186;-87
2024/02/23 11:42:05;;;;;;;20.40;18.83;;;7.70;76.20;;;;;;5113579;28;20174;-86
2024/02/23 11:44:31;;;;;;;20.53;18.87;;;7.70;75.80;;;;;;5118222;28;20174;-86
2024/02/23 11:46:58;;;;;;;21.33;19.37;;;7.70;75.80;;;;;;5117615;28;20219;-85
2024/02/23 11:49:29;;;;;;;20.40;19.03;;;7.70;75.50;;;;;;5115379;28;20234;-85
2024/02/23 11:51:54;;;;;;;22.23;20.37;;;7.70;74.70;;;;;;5117066;28;20169;-85
2024/02/23 11:54:21;;;;;;;21.37;19.43;;;7.70;73.70;;;;;;5116751;28;20162;-85
2024/02/23 11:56:49;;;;;;;20.30;19.00;;;7.80;74.90;;;;;;5116754;28;20170;-84
2024/02/23 11:59:15;;;;;;;20.67;19.07;;;7.70;74.20;;;;;;5115273;28;20201;-84
2024/02/23 12:01:41;;;;;;;21.30;19.60;;;7.80;73.60;;;;;;5116879;28;20174;-85
2024/02/23 12:04:07;;;;;;;21.63;19.93;;;7.80;74.70;;;;;;5117109;28;20758;-86
2024/02/23 12:06:33;;;;;;;20.77;19.17;;;7.80;74.10;;;;;;5116742;28;20665;-86
2024/02/23 12:09:00;;;;;;;21.00;19.40;;;7.80;74.00;;;;;;5116364;28;20633;-84
2024/02/23 12:11:26;;;;;;;21.10;19.37;;;7.80;74.60;;;;;;5116443;28;20174;-85
2024/02/23 12:13:51;;;;;;;36.43;34.00;;;7.80;74.10;;;;;;5116557;28;20539;-85
2024/02/23 12:16:17;;;;;;;36.60;34.17;;;7.80;73.60;;;;;;5115078;28;20173;-85
2024/02/23 12:18:42;;;;;;;38.03;35.53;;;7.70;72.10;;;;;;5116180;28;20661;-86
2024/02/23 12:21:09;;;;;;;36.93;34.53;;;7.70;72.30;;;;;;5116205;27;20551;-85
2024/02/23 12:23:41;;;;;;;37.00;34.50;;;7.70;72.80;;;;;;5115072;28;20228;-85
2024/02/23 12:26:08;;;;;;;35.47;32.67;;;7.70;71.30;;;;;;5114720;28;20209;-85
2024/02/23 12:28:34;;;;;;;38.00;35.30;;;7.80;73.20;;;;;;5116188;28;20673;-85
2024/02/23 12:31:00;;;;;;;39.10;36.30;;;7.80;71.60;;;;;;5116261;28;20166;-85